Hauptseite
METAR-TAF:

METAR-TAF

Flughäfen :

Damaskus, Syrien

Flughafen Damaskus

Breite: 33-25N, Länge: 036-31E, Höhe: 608 m

Beobachtung

Neuester Wetterbericht von vor 3 Stunden und 54 Minuten, um 14:00 UTC
Wind 18 kt aus Südwest
Temperatur 34°C
Luftfeuchtigkeit 9%
Luftdruck 1013 hPa
Sichtweite 10 km oder mehr
keine Wolken unter 1500 m und keine Kumulonimbus oder Gewitterwolken

METAR: OSDI 261400Z 23018KT CAVOK 34/M03 Q1013

Zeit: 20:54 (17:54 UTC)

Prognose

Gültige Prognose vom 26 um 06 UTC bis 27 um 12 UTC
Wind 10 kt aus Südwest
Sichtweite 10 km oder mehr
keine Wolken unter 1500 m und keine Kumulonimbus oder Gewitterwolken
Zeitweise
vom 26 um 12 UTC bis 26 um 18 UTC
Wind 15 kt aus West/Südwest, Böen bis zu 25 kt
Sichtweite: 8000 m
Leicht bewölkt in der Höhe von 3000 ft
Aufgelockert bewölkt in der Höhe von 10000 ft

TAF: OSDI 2606/2712 22010KT CAVOK TEMPO 2612/2618 24015G25KT 8000 FEW030 SCT100

Wetterbeobachtungen und Prognosen von mehr als 4000 Flughäfen (METAR und TAF Bericht).

Die verfügbaren Stationen werden durch gelbe und rote Markierungen auf der Karte dargestellt.

Führen Sie die Maus auf sie, um den Namen der Station zu sehen.

Darauf klicken, um die Beobachtung von Wetterbeobachtungen und Prognosen zu sehen.

Um die Karte zu ändern : klicken Sie auf den grünen Tasten mit einem schwarzen Kreuz Zum Vergrößern, auf den grünen Button mit einem Gedankenstrich zu verkleinern, oder auf die grünen Pfeile für benachbarte Karten.


METAR-TAF: